• Join FlightAware (Why Join?)
  • Login
  • US Flag 
05:18AM EDT


 

Airport Tracker/Info


-or-


 

Live Flight TrackerFlight Track Log ✈ N75ZM ✈ 25-Apr-2013 ✈ KPDK - KCHS

Flight Track Log - Related Links

Times and Time Zones

All times are in EDT time to prevent confusion due to time zone crossing. See the N75ZM flight status page for this flight to view local times or setup timezone preferences in your user account.

Time Position Orientation Groundspeed Altitude Reporting Facility
EDT Latitude Longitude Course Direction KTS MPH feet Rate Location/Type
05:21PM 33.9333 -84.3333 90° East 127 146 2,700  Level Atlanta TRACON
05:22PM 33.9667 -84.3500 337° Northwest 144 166 3,500 840 Climbing Atlanta TRACON
05:22PM 33.9833 -84.3167 59° Northeast 147 169 4,300 780 Climbing Atlanta TRACON
05:24PM 33.9833 -84.2500 90° East 154 177 5,100 360 Climbing Atlanta TRACON
05:25PM 33.9833 -84.2000 90° East 172 198 5,100  Level Atlanta TRACON
05:26PM 33.8667 -83.9105 90° East  Level FlightAware Approximate
05:26PM 33.9833 -84.1333 90° East 178 205 5,100  Level Atlanta TRACON
05:26PM 33.9833 -84.0833 90° East 168 193 5,600 600 Climbing Atlanta TRACON
05:28PM 33.9833 -84.0333 90° East 149 171 6,400 660 Climbing Atlanta TRACON
05:28PM 33.9833 -83.9833 90° East 148 170 7,000 360 Climbing Atlanta TRACON
05:29PM 33.9833 -83.9333 90° East 175 201 7,100  Climbing Atlanta TRACON
05:30PM 33.9667 -83.8667 107° East 187 215 7,100  Level Atlanta TRACON
05:31PM 33.9667 -83.8000 90° East 185 213 7,100  Level Atlanta TRACON
05:32PM 33.9667 -83.7500 90° East 182 209 7,100 -60 Level Atlanta TRACON
05:33PM 33.9667 -83.6833 90° East 182 209 7,000 -60 Descending Atlanta TRACON
05:34PM 33.9667 -83.6167 90° East 183 211 7,000  Level Atlanta TRACON
05:35PM 33.9667 -83.5500 90° East 187 215 7,000  Level Atlanta TRACON
05:36PM 33.9500 -83.5000 112° Southeast 189 217 7,000  Level Atlanta TRACON
05:37PM 33.9500 -83.4333 90° East 191 220 7,000  Level Atlanta TRACON
05:38PM 33.9500 -83.3667 90° East 189 217 7,000  Level Atlanta TRACON
05:39PM 33.9500 -83.3000 90° East 189 217 7,000  Level Atlanta TRACON
05:40PM 33.9333 -83.2500 112° Southeast 193 222 7,000  Level Atlanta TRACON
05:41PM 33.9167 -83.1833 107° East 192 221 7,000  Level Atlanta TRACON
05:42PM 33.9000 -83.1167 107° East 193 222 7,000  Level Atlanta TRACON
05:44PM 33.8899 -83.0478 109° East  Level FlightAware Approximate
05:51PM 33.7979 -82.6083 107° East  Level FlightAware Approximate
05:52PM 33.7824 -82.5462 107° East  Level FlightAware Approximate
05:53PM 33.7668 -82.4841 107° East  Level FlightAware Approximate
05:54PM 33.7543 -82.4210 103° East  Level FlightAware Approximate
05:55PM 33.7417 -82.3580 103° East  Level FlightAware Approximate
05:56PM 33.7291 -82.2950 103° East  Level FlightAware Approximate
05:57PM 33.7165 -82.2319 104° East  Level FlightAware Approximate
05:58PM 33.7038 -82.1690 104° East  Level FlightAware Approximate
05:59PM 33.6843 -82.1088 115° Southeast  Level FlightAware Approximate
06:00PM 33.6618 -82.0499 115° Southeast  Level FlightAware Approximate
06:01PM 33.6393 -81.9911 115° Southeast  Level FlightAware Approximate
06:02PM 33.6168 -81.9323 115° Southeast  Level FlightAware Approximate
06:03PM 33.5942 -81.8735 115° Southeast  Level FlightAware Approximate
06:04PM 33.5717 -81.8148 115° Southeast  Level FlightAware Approximate
06:05PM 33.5490 -81.7560 115° Southeast  Level FlightAware Approximate
06:06PM 33.5264 -81.6973 115° Southeast  Level FlightAware Approximate
06:07PM 33.5037 -81.6387 115° Southeast  Level FlightAware Approximate
06:08PM 33.4810 -81.5800 115° Southeast  Level FlightAware Approximate
06:09PM 33.4583 -81.5214 115° Southeast  Level FlightAware Approximate
06:10PM 33.4359 -81.4627 114° Southeast  Level FlightAware Approximate
06:11PM 33.4137 -81.4038 114° Southeast  Level FlightAware Approximate
06:12PM 33.3914 -81.3450 114° Southeast  Level FlightAware Approximate
06:13PM 33.3692 -81.2862 114° Southeast  Level FlightAware Approximate
06:14PM 33.3469 -81.2275 114° Southeast  Level FlightAware Approximate
06:15PM 33.3245 -81.1688 114° Southeast  Level FlightAware Approximate
06:16PM 33.3021 -81.1101 114° Southeast  Level FlightAware Approximate
06:17PM 33.2798 -81.0514 115° Southeast  Level FlightAware Approximate
06:18PM 33.2573 -80.9928 115° Southeast  Level FlightAware Approximate
06:19PM 33.2349 -80.9342 115° Southeast  Level FlightAware Approximate
06:20PM 33.2124 -80.8756 115° Southeast  Level FlightAware Approximate
06:21PM 33.1899 -80.8171 115° Southeast  Level FlightAware Approximate
06:22PM 33.1673 -80.7586 115° Southeast  Level FlightAware Approximate
06:23PM 33.1446 -80.7002 115° Southeast  Level FlightAware Approximate
06:24PM 33.1219 -80.6418 115° Southeast  Level FlightAware Approximate
06:25PM 33.0992 -80.5834 115° Southeast  Level FlightAware Approximate
06:26PM 33.0765 -80.5251 115° Southeast  Level FlightAware Approximate
06:27PM 33.0553 -80.4660 112° Southeast  Level FlightAware Approximate
06:28PM 33.0354 -80.4062 112° Southeast  Level FlightAware Approximate
06:29PM 33.0152 -80.3466 117° Southeast  Level FlightAware Approximate
06:30PM 32.9907 -80.2893 117° Southeast  Level FlightAware Approximate
06:31PM 32.9662 -80.2321 117° Southeast  Level FlightAware Approximate
06:32PM 32.9417 -80.1749 117° Southeast  Level FlightAware Approximate
06:33PM 32.9171 -80.1177 117° Southeast  Level FlightAware Approximate
06:34PM 32.8939 -80.0598 115° Southeast  Level FlightAware Approximate
06:35PM 32.8986 -80.0405 115° Southeast  Level Estimated
06:36PM 32.8986 -80.0405 115° Southeast  Level Estimated
06:37PM 32.8986 -80.0405 115° Southeast  Level Estimated
06:38PM 32.8986 -80.0405 115° Southeast  Level Estimated
06:39PM 32.8986 -80.0405 115° Southeast  Level Estimated
06:40PM 32.8986 -80.0405 115° Southeast  Level Estimated
06:41PM 32.8986 -80.0405 115° Southeast  Level Estimated
06:42PM 32.8986 -80.0405 115° Southeast  Level Estimated
06:43PM 32.8986 -80.0405 115° Southeast  Level Estimated
06:44PM 32.8986 -80.0405 115° Southeast  Level Estimated
06:45PM 32.8986 -80.0405 115° Southeast  Level Estimated
06:46PM 32.8986 -80.0405 115° Southeast  Level Estimated